Time;durP1;ratioP1;P1;durP2;ratioP2;P2;SDS_P1;SDS_P2;PMS_P1;PMS_P2;Temp;Humidity;BMP_temperature;BMP_pressure;BME280_temperature;BME280_humidity;BME280_pressure;Samples;Min_cycle;Max_cycle;Signal;HPM_P1;HPM_P2
2023/07/03 00:01:49;;;;;;;14.75;4.22;;;17.10;99.90;;;;;;5060393;28;20408;-56
2023/07/03 00:04:15;;;;;;;15.73;3.60;;;17.20;99.90;;;;;;5065629;28;20105;-56
2023/07/03 00:06:40;;;;;;;12.95;4.22;;;17.10;99.90;;;;;;5065576;28;20056;-56
2023/07/03 00:09:06;;;;;;;18.38;4.03;;;17.10;99.90;;;;;;5065588;28;20032;-56
2023/07/03 00:11:32;;;;;;;14.10;4.05;;;17.10;99.90;;;;;;5065489;28;20488;-56
2023/07/03 00:13:58;;;;;;;16.75;4.45;;;17.10;99.90;;;;;;5064594;28;20032;-56
2023/07/03 00:16:24;;;;;;;15.90;4.22;;;17.00;99.90;;;;;;5066338;28;20047;-56
2023/07/03 00:18:49;;;;;;;14.25;3.97;;;16.90;99.90;;;;;;5065939;28;20035;-56
2023/07/03 00:21:15;;;;;;;16.08;4.53;;;16.90;99.90;;;;;;5064798;28;20511;-56
2023/07/03 00:23:40;;;;;;;16.30;4.07;;;17.00;99.90;;;;;;5065783;28;20102;-56
2023/07/03 00:26:06;;;;;;;20.13;4.72;;;16.80;99.90;;;;;;5065188;28;20075;-56
2023/07/03 00:28:31;;;;;;;15.65;4.40;;;16.80;99.90;;;;;;5065559;28;20040;-56
2023/07/03 00:30:57;;;;;;;14.98;3.70;;;16.80;99.90;;;;;;5065853;28;20039;-55
2023/07/03 00:33:22;;;;;;;17.63;4.28;;;16.70;99.90;;;;;;5064357;28;20128;-56
2023/07/03 00:35:48;;;;;;;19.38;4.45;;;16.70;99.90;;;;;;5065728;28;20454;-56
2023/07/03 00:38:14;;;;;;;14.75;4.20;;;16.80;99.90;;;;;;5062871;28;20198;-56
2023/07/03 00:40:39;;;;;;;18.25;4.80;;;16.80;99.90;;;;;;5065629;28;20028;-56
2023/07/03 00:43:05;;;;;;;18.98;4.55;;;16.70;99.90;;;;;;5065209;28;20029;-56
2023/07/03 00:45:32;;;;;;;12.00;3.75;;;16.70;99.90;;;;;;5065866;28;20044;-56
2023/07/03 00:47:59;;;;;;;17.20;3.80;;;16.70;99.90;;;;;;5065682;28;20520;-56
2023/07/03 00:50:25;;;;;;;16.65;4.47;;;16.70;99.90;;;;;;5064706;28;20033;-56
2023/07/03 00:52:58;;;;;;;18.98;4.15;;;16.70;99.90;;;;;;5065387;28;20508;-56
2023/07/03 00:55:24;;;;;;;13.02;4.10;;;16.60;99.90;;;;;;5063739;28;20052;-56
2023/07/03 00:57:51;;;;;;;15.95;4.57;;;16.60;99.90;;;;;;5065410;28;20071;-55
2023/07/03 01:00:17;;;;;;;13.73;4.30;;;16.50;99.90;;;;;;5066817;28;20032;-56
2023/07/03 01:02:55;;;;;;;17.58;3.90;;;16.50;99.90;;;;;;5069412;28;20504;-56
2023/07/03 01:05:33;;;;;;;15.40;4.63;;;16.30;99.90;;;;;;5066892;28;20438;-56
2023/07/03 01:08:00;;;;;;;15.23;4.28;;;16.40;99.90;;;;;;5068454;28;20258;-56
2023/07/03 01:10:29;;;;;;;16.45;3.95;;;16.40;99.90;;;;;;5068789;28;20481;-55
2023/07/03 01:12:59;;;;;;;14.02;4.00;;;16.50;99.90;;;;;;5068985;28;20048;-56
2023/07/03 01:15:28;;;;;;;17.90;4.10;;;16.40;99.90;;;;;;5069238;28;20032;-55
2023/07/03 01:17:56;;;;;;;14.45;4.60;;;16.40;99.90;;;;;;5068236;28;20229;-56
2023/07/03 01:20:24;;;;;;;20.40;4.32;;;16.30;99.90;;;;;;5068392;28;20435;-55
2023/07/03 01:23:23;;;;;;;19.65;5.05;;;16.30;99.90;;;;;;5068715;28;20043;-56
2023/07/03 01:25:51;;;;;;;16.80;4.38;;;16.40;99.90;;;;;;5068647;28;20435;-56
2023/07/03 01:28:19;;;;;;;17.25;4.07;;;16.30;99.90;;;;;;5067321;28;20040;-56
2023/07/03 01:30:45;;;;;;;15.93;4.22;;;16.30;99.90;;;;;;5068420;28;20056;-56
2023/07/03 01:33:17;;;;;;;19.77;4.82;;;16.30;99.90;;;;;;5068155;28;20044;-56
2023/07/03 01:35:46;;;;;;;18.88;4.35;;;16.20;99.90;;;;;;5068473;28;20043;-56
2023/07/03 01:38:13;;;;;;;15.80;4.43;;;16.30;99.90;;;;;;5066821;28;20032;-56
2023/07/03 01:40:39;;;;;;;21.15;4.18;;;16.30;99.90;;;;;;5068152;28;20064;-55
2023/07/03 01:43:05;;;;;;;19.45;4.70;;;16.30;99.90;;;;;;5068093;28;20502;-56
2023/07/03 01:45:37;;;;;;;14.32;3.95;;;16.30;99.90;;;;;;5068161;28;20828;-56
2023/07/03 01:48:03;;;;;;;17.02;4.55;;;16.30;99.90;;;;;;5068019;28;20036;-56
2023/07/03 01:50:30;;;;;;;16.92;4.50;;;16.30;99.90;;;;;;5067613;28;20031;-56
2023/07/03 01:53:01;;;;;;;20.20;4.32;;;16.20;99.90;;;;;;5067982;28;20538;-56
2023/07/03 01:55:51;;;;;;;13.80;3.95;;;16.30;99.90;;;;;;5067302;28;20036;-56
2023/07/03 01:58:36;;;;;;;19.60;4.22;;;16.30;99.90;;;;;;5067622;28;20039;-56
2023/07/03 02:01:06;;;;;;;20.70;5.18;;;16.30;99.90;;;;;;5067226;28;20373;-57
2023/07/03 02:03:48;;;;;;;19.13;4.55;;;16.30;99.90;;;;;;5067764;28;20032;-56
2023/07/03 02:06:20;;;;;;;14.93;4.30;;;16.20;99.90;;;;;;5067391;28;20032;-56
2023/07/03 02:08:49;;;;;;;18.52;4.55;;;16.10;99.90;;;;;;5067889;28;20496;-56
2023/07/03 02:11:16;;;;;;;19.73;4.28;;;15.70;99.90;;;;;;5066019;28;20106;-56
2023/07/03 02:13:42;;;;;;;20.02;4.78;;;16.20;99.90;;;;;;5048066;28;20037;-56
2023/07/03 02:16:07;;;;;;;17.88;5.10;;;16.20;99.90;;;;;;5057751;28;20043;-56
2023/07/03 02:18:34;;;;;;;21.63;4.57;;;16.20;99.90;;;;;;5067551;28;20037;-56
2023/07/03 02:21:00;;;;;;;21.00;4.60;;;16.20;99.90;;;;;;5067587;28;20033;-55
2023/07/03 02:23:26;;;;;;;20.73;4.72;;;16.20;99.90;;;;;;5066862;28;20033;-56
2023/07/03 02:25:51;;;;;;;22.67;4.60;;;16.10;99.90;;;;;;5067455;28;20499;-56
2023/07/03 02:28:18;;;;;;;21.98;4.65;;;16.10;99.90;;;;;;5066942;28;20063;-56
2023/07/03 02:30:43;;;;;;;20.38;4.80;;;16.10;99.90;;;;;;5067580;28;20540;-56
2023/07/03 02:33:10;;;;;;;17.50;4.53;;;16.10;99.90;;;;;;5066760;28;20059;-55
2023/07/03 02:35:37;;;;;;;19.52;5.10;;;16.10;99.90;;;;;;5066842;28;20047;-56
2023/07/03 02:38:03;;;;;;;23.77;5.25;;;16.00;99.90;;;;;;5066354;28;20063;-56
2023/07/03 02:40:29;;;;;;;18.42;4.63;;;16.00;99.90;;;;;;5066833;28;20043;-56
2023/07/03 02:42:54;;;;;;;26.00;4.97;;;16.00;99.90;;;;;;5066942;28;20036;-56
2023/07/03 02:45:20;;;;;;;20.15;4.90;;;16.20;99.90;;;;;;5061383;28;20024;-56
2023/07/03 02:47:45;;;;;;;17.63;4.60;;;16.10;99.90;;;;;;5067158;28;20047;-56
2023/07/03 02:50:11;;;;;;;20.33;5.10;;;16.00;99.90;;;;;;5066885;28;20395;-56
2023/07/03 02:52:37;;;;;;;21.92;4.43;;;15.90;99.90;;;;;;5066685;28;20119;-56
2023/07/03 02:55:02;;;;;;;24.60;5.22;;;16.00;99.90;;;;;;5066288;28;20456;-56
2023/07/03 02:57:28;;;;;;;20.98;4.65;;;16.00;99.90;;;;;;5066051;28;20572;-56
2023/07/03 02:59:54;;;;;;;22.02;5.15;;;15.90;99.90;;;;;;5066773;28;20040;-56
2023/07/03 03:02:20;;;;;;;19.30;4.35;;;15.90;99.90;;;;;;5066376;28;20032;-56
2023/07/03 03:04:47;;;;;;;17.00;4.78;;;16.00;99.90;;;;;;5066345;28;20111;-55
2023/07/03 03:07:13;;;;;;;20.75;4.60;;;16.10;99.90;;;;;;5065381;28;20033;-56
2023/07/03 03:09:40;;;;;;;21.25;4.60;;;16.10;99.90;;;;;;5066661;28;20443;-56
2023/07/03 03:12:07;;;;;;;20.65;4.57;;;16.00;99.90;;;;;;5066315;28;20043;-56
2023/07/03 03:14:32;;;;;;;19.98;5.00;;;16.00;99.90;;;;;;5066919;28;20036;-56
2023/07/03 03:16:58;;;;;;;20.90;4.75;;;16.00;99.90;;;;;;5067468;28;20039;-56
2023/07/03 03:19:24;;;;;;;25.15;5.35;;;15.90;99.90;;;;;;5065018;28;20032;-55
2023/07/03 03:21:52;;;;;;;17.67;4.68;;;15.80;99.90;;;;;;5066519;28;20097;-56
2023/07/03 03:24:20;;;;;;;17.90;4.45;;;16.00;99.90;;;;;;5065822;28;20043;-56
2023/07/03 03:26:45;;;;;;;20.30;4.78;;;15.90;99.90;;;;;;5065917;28;20029;-56
2023/07/03 03:29:11;;;;;;;20.88;4.70;;;15.90;99.90;;;;;;5057643;28;20033;-56
2023/07/03 03:31:36;;;;;;;27.85;5.25;;;15.90;99.90;;;;;;5058525;28;20036;-56
2023/07/03 03:34:02;;;;;;;21.30;5.50;;;16.00;99.90;;;;;;5065645;28;20047;-56
2023/07/03 03:36:27;;;;;;;24.52;5.47;;;15.90;99.90;;;;;;5065855;28;20409;-56
2023/07/03 03:38:53;;;;;;;20.77;5.18;;;15.90;99.90;;;;;;5066385;28;20059;-56
2023/07/03 03:41:19;;;;;;;21.77;5.13;;;15.90;99.90;;;;;;5064913;28;20396;-56
2023/07/03 03:43:47;;;;;;;23.95;5.00;;;15.90;99.90;;;;;;5066477;28;20438;-55
2023/07/03 03:46:13;;;;;;;25.33;5.22;;;15.80;99.90;;;;;;5065481;28;20032;-56
2023/07/03 03:48:38;;;;;;;20.52;4.95;;;15.80;99.90;;;;;;5066055;28;20146;-55
2023/07/03 03:51:04;;;;;;;21.88;4.88;;;15.80;99.90;;;;;;5065090;28;20058;-55
2023/07/03 03:53:30;;;;;;;23.27;5.22;;;15.80;99.90;;;;;;5066004;28;20040;-56
2023/07/03 03:55:55;;;;;;;26.35;5.65;;;15.90;99.90;;;;;;5066030;28;20035;-56
2023/07/03 03:58:21;;;;;;;26.92;5.70;;;15.90;99.90;;;;;;5065235;28;20395;-56
2023/07/03 04:00:50;;;;;;;24.45;5.63;;;15.80;99.90;;;;;;5066032;28;20082;-56
2023/07/03 04:03:16;;;;;;;26.33;5.10;;;15.90;99.90;;;;;;5047742;28;20037;-56
2023/07/03 04:05:42;;;;;;;27.20;6.05;;;15.90;99.90;;;;;;5045847;28;20051;-56
2023/07/03 04:08:09;;;;;;;24.80;5.70;;;15.90;99.90;;;;;;5045251;28;20033;-56
2023/07/03 04:10:35;;;;;;;25.85;5.20;;;16.00;99.90;;;;;;5064154;28;20496;-56
2023/07/03 04:13:01;;;;;;;27.98;5.50;;;15.80;99.90;;;;;;5065392;28;20127;-56
2023/07/03 04:15:33;;;;;;;29.83;5.60;;;15.70;99.90;;;;;;5066390;28;20037;-55
2023/07/03 04:17:59;;;;;;;22.27;5.82;;;15.80;99.90;;;;;;5065692;28;20037;-56
2023/07/03 04:20:25;;;;;;;27.95;5.55;;;15.90;99.90;;;;;;5065223;28;20028;-55
2023/07/03 04:22:51;;;;;;;22.63;4.95;;;16.00;99.90;;;;;;5065825;28;20059;-56
2023/07/03 04:25:17;;;;;;;25.38;5.40;;;16.10;99.90;;;;;;5047654;28;20033;-56
2023/07/03 04:27:42;;;;;;;18.75;4.85;;;16.00;99.90;;;;;;5045751;28;20037;-56
2023/07/03 04:30:09;;;;;;;34.65;6.50;;;16.00;99.90;;;;;;5045207;28;20033;-56
2023/07/03 04:32:36;;;;;;;25.48;5.28;;;16.00;99.90;;;;;;5045467;28;20048;-56
2023/07/03 04:35:02;;;;;;;27.88;5.45;;;16.00;99.90;;;;;;5051436;28;20127;-56
2023/07/03 04:37:29;;;;;;;27.42;5.65;;;16.00;99.90;;;;;;5069629;28;20124;-55
2023/07/03 04:39:56;;;;;;;27.00;5.35;;;15.90;99.90;;;;;;5069641;28;20039;-55
2023/07/03 04:42:22;;;;;;;23.90;5.32;;;16.10;99.90;;;;;;5069063;28;20469;-56
2023/07/03 04:44:48;;;;;;;24.88;5.80;;;16.10;99.90;;;;;;5068711;28;20446;-56
2023/07/03 04:47:18;;;;;;;30.55;6.07;;;16.30;99.90;;;;;;5068988;28;20115;-56
2023/07/03 04:49:45;;;;;;;28.92;6.05;;;16.10;99.90;;;;;;5069514;28;20083;-56
2023/07/03 04:52:11;;;;;;;24.08;6.22;;;16.10;99.90;;;;;;5068833;28;20051;-56
2023/07/03 04:54:37;;;;;;;32.80;6.70;;;16.10;99.90;;;;;;5069397;28;20032;-56
2023/07/03 04:57:03;;;;;;;25.65;5.28;;;16.20;99.90;;;;;;5067581;28;20358;-56
2023/07/03 04:59:29;;;;;;;24.48;5.35;;;16.30;99.90;;;;;;5069116;28;20492;-56
2023/07/03 05:01:54;;;;;;;25.00;5.65;;;16.40;99.90;;;;;;5069604;28;20078;-55
2023/07/03 05:04:20;;;;;;;23.65;5.90;;;16.40;99.90;;;;;;5068744;28;20040;-56
2023/07/03 05:06:46;;;;;;;27.55;5.93;;;16.30;99.90;;;;;;5068644;28;20071;-56
2023/07/03 05:09:12;;;;;;;23.15;5.80;;;16.40;99.90;;;;;;5061816;28;20043;-55
2023/07/03 05:11:38;;;;;;;26.13;5.40;;;16.30;99.90;;;;;;5069173;28;20041;-56
2023/07/03 05:14:03;;;;;;;24.05;6.25;;;16.30;99.90;;;;;;5068334;28;20036;-56
2023/07/03 05:16:29;;;;;;;25.67;6.15;;;16.30;99.90;;;;;;5069829;28;20113;-56
2023/07/03 05:18:55;;;;;;;30.02;6.05;;;16.40;99.90;;;;;;5068180;28;20523;-59
2023/07/03 05:21:20;;;;;;;24.17;5.47;;;16.50;99.90;;;;;;5068379;28;20028;-57
2023/07/03 05:23:46;;;;;;;25.25;5.78;;;16.50;99.90;;;;;;5068742;28;20119;-56
2023/07/03 05:26:12;;;;;;;28.60;5.82;;;16.40;99.90;;;;;;5067992;28;20060;-56
2023/07/03 05:28:37;;;;;;;28.98;6.22;;;16.50;99.90;;;;;;5068553;28;20051;-55
2023/07/03 05:31:03;;;;;;;25.52;6.75;;;16.50;99.90;;;;;;5067422;28;20086;-57
2023/07/03 05:33:29;;;;;;;27.45;5.82;;;16.50;99.90;;;;;;5068790;28;20516;-55
2023/07/03 05:36:00;;;;;;;41.90;7.03;;;16.50;99.90;;;;;;5068644;28;20032;-56
2023/07/03 05:38:27;;;;;;;23.00;5.88;;;16.60;99.90;;;;;;5067997;28;20408;-56
2023/07/03 05:40:54;;;;;;;25.17;5.35;;;16.70;99.90;;;;;;5061451;28;20087;-56
2023/07/03 05:43:20;;;;;;;34.30;6.28;;;16.70;99.90;;;;;;5058460;28;20036;-56
2023/07/03 05:45:48;;;;;;;25.00;5.50;;;16.80;99.90;;;;;;5067728;28;20086;-55
2023/07/03 05:48:14;;;;;;;21.27;5.28;;;16.60;99.90;;;;;;5068020;28;20108;-56
2023/07/03 05:50:39;;;;;;;27.55;5.70;;;16.60;99.90;;;;;;5068549;28;20060;-56
2023/07/03 05:53:05;;;;;;;26.52;6.03;;;16.60;99.90;;;;;;5067319;28;20511;-56
2023/07/03 05:55:30;;;;;;;25.50;5.53;;;16.70;99.90;;;;;;5069265;28;20543;-56
2023/07/03 05:57:56;;;;;;;28.48;5.88;;;16.70;99.90;;;;;;5068271;28;20029;-56
2023/07/03 06:00:23;;;;;;;24.70;6.07;;;16.80;99.90;;;;;;5068053;28;20546;-55
2023/07/03 06:02:51;;;;;;;27.83;6.10;;;16.80;99.90;;;;;;5068046;28;20617;-56
2023/07/03 06:05:17;;;;;;;23.05;5.88;;;17.00;99.90;;;;;;5067150;28;20419;-56
2023/07/03 06:07:43;;;;;;;30.85;6.60;;;17.10;99.90;;;;;;5067673;28;20116;-56
2023/07/03 06:10:10;;;;;;;30.08;6.00;;;17.20;99.90;;;;;;5067437;28;20500;-56
2023/07/03 06:12:36;;;;;;;25.15;5.75;;;17.30;99.90;;;;;;5068087;28;20056;-55
2023/07/03 06:15:02;;;;;;;25.08;5.68;;;17.30;99.90;;;;;;5066439;28;20142;-56
2023/07/03 06:17:29;;;;;;;26.25;6.35;;;17.30;99.90;;;;;;5068448;28;20085;-56
2023/07/03 06:19:55;;;;;;;29.45;6.32;;;17.50;99.90;;;;;;5066217;28;20062;-56
2023/07/03 06:22:21;;;;;;;21.80;5.75;;;17.30;99.90;;;;;;5065765;28;20040;-55
2023/07/03 06:24:46;;;;;;;21.15;6.15;;;17.50;99.90;;;;;;5066881;28;20496;-56
2023/07/03 06:27:13;;;;;;;23.08;5.78;;;17.60;99.90;;;;;;5067173;28;20040;-56
2023/07/03 06:29:39;;;;;;;24.58;5.20;;;17.60;99.90;;;;;;5067519;28;20033;-56
2023/07/03 06:32:06;;;;;;;25.10;5.70;;;17.80;99.90;;;;;;5067079;28;20415;-55
2023/07/03 06:34:31;;;;;;;30.55;6.25;;;17.70;99.90;;;;;;5067379;28;20040;-56
2023/07/03 06:36:57;;;;;;;34.40;6.00;;;17.70;99.90;;;;;;5065753;28;20036;-56
2023/07/03 06:39:23;;;;;;;19.55;5.22;;;17.70;99.90;;;;;;5066688;28;20025;-55
2023/07/03 06:41:48;;;;;;;24.13;6.38;;;17.80;99.90;;;;;;5067655;28;20404;-56
2023/07/03 06:44:16;;;;;;;22.75;5.53;;;17.90;99.90;;;;;;5067046;28;20400;-56
2023/07/03 06:46:43;;;;;;;27.30;5.78;;;17.80;99.90;;;;;;5062957;28;20061;-56
2023/07/03 06:49:09;;;;;;;26.13;6.10;;;17.80;99.90;;;;;;5066824;28;20033;-56
2023/07/03 06:51:35;;;;;;;20.65;5.85;;;17.90;99.90;;;;;;5066427;28;20032;-55
2023/07/03 06:54:01;;;;;;;25.77;6.72;;;17.90;99.90;;;;;;5066940;28;20469;-55
2023/07/03 06:56:28;;;;;;;25.15;6.38;;;17.80;99.90;;;;;;5066672;28;20029;-56
2023/07/03 06:58:54;;;;;;;24.67;6.40;;;17.90;99.90;;;;;;5066630;28;20028;-56
2023/07/03 07:01:24;;;;;;;25.30;6.47;;;17.80;99.90;;;;;;5066551;28;20128;-56
2023/07/03 07:03:50;;;;;;;23.88;5.93;;;17.90;99.90;;;;;;5067060;28;20060;-56
2023/07/03 07:06:17;;;;;;;25.10;6.07;;;17.90;99.90;;;;;;5066157;28;20033;-55
2023/07/03 07:08:44;;;;;;;24.20;6.88;;;18.10;99.90;;;;;;5066295;28;20033;-55
2023/07/03 07:11:14;;;;;;;23.58;6.15;;;18.30;99.90;;;;;;5066966;28;20028;-57
2023/07/03 07:13:42;;;;;;;21.42;6.00;;;18.20;99.90;;;;;;5067001;28;20040;-56
2023/07/03 07:16:19;;;;;;;20.02;5.88;;;18.40;99.90;;;;;;5067401;28;20396;-55
2023/07/03 07:18:51;;;;;;;18.92;5.57;;;18.60;99.90;;;;;;5066771;28;20492;-56
2023/07/03 07:21:17;;;;;;;23.30;6.30;;;18.70;99.90;;;;;;5048841;28;20108;-56
2023/07/03 07:23:45;;;;;;;26.67;6.03;;;18.70;99.90;;;;;;5042155;28;20040;-55
2023/07/03 07:26:11;;;;;;;20.90;5.60;;;18.80;99.90;;;;;;5055297;28;20037;-56
2023/07/03 07:28:36;;;;;;;17.30;5.35;;;18.90;99.90;;;;;;5047022;28;20333;-56
2023/07/03 07:31:02;;;;;;;22.60;5.57;;;19.10;99.90;;;;;;5052754;28;20075;-56
2023/07/03 07:33:27;;;;;;;21.67;5.50;;;19.10;99.90;;;;;;5066430;28;20488;-56
2023/07/03 07:35:53;;;;;;;24.90;5.05;;;19.20;99.90;;;;;;5066396;28;20104;-56
2023/07/03 07:38:21;;;;;;;21.67;5.65;;;19.20;99.90;;;;;;5065752;28;20115;-56
2023/07/03 07:40:48;;;;;;;20.02;5.25;;;19.10;99.90;;;;;;5066472;28;20115;-56
2023/07/03 07:43:14;;;;;;;18.92;5.18;;;19.00;99.90;;;;;;5065011;28;20036;-56
2023/07/03 07:45:39;;;;;;;22.33;5.40;;;19.10;99.90;;;;;;5066086;28;20039;-55
2023/07/03 07:48:05;;;;;;;20.80;5.13;;;19.10;99.90;;;;;;5065887;28;20463;-56
2023/07/03 07:50:36;;;;;;;20.33;4.82;;;19.10;99.90;;;;;;5066253;28;20027;-56
2023/07/03 07:53:02;;;;;;;19.10;4.82;;;19.00;99.90;;;;;;5064729;28;20044;-56
2023/07/03 07:55:28;;;;;;;18.95;4.93;;;18.90;99.90;;;;;;5065831;28;20051;-55
2023/07/03 07:57:53;;;;;;;22.25;5.57;;;19.00;99.90;;;;;;5066335;28;20452;-56
2023/07/03 08:00:20;;;;;;;19.92;5.20;;;18.90;99.90;;;;;;5065875;28;20033;-55
2023/07/03 08:02:46;;;;;;;17.60;4.93;;;19.10;99.90;;;;;;5066336;28;20121;-56
2023/07/03 08:05:12;;;;;;;17.98;4.35;;;19.00;99.90;;;;;;5048015;28;20133;-56
2023/07/03 08:07:38;;;;;;;14.52;4.57;;;19.00;99.90;;;;;;5045652;28;20110;-56
2023/07/03 08:10:04;;;;;;;17.75;4.50;;;19.00;99.90;;;;;;5058537;28;20036;-56
2023/07/03 08:12:30;;;;;;;25.75;4.72;;;19.00;99.90;;;;;;5066052;28;20044;-55
2023/07/03 08:14:55;;;;;;;22.58;4.97;;;19.00;99.90;;;;;;5059366;28;20029;-56
2023/07/03 08:17:21;;;;;;;16.17;3.65;;;19.10;99.90;;;;;;5066077;28;20041;-57
2023/07/03 08:19:46;;;;;;;16.60;4.25;;;19.40;99.90;;;;;;5065793;28;20059;-55
2023/07/03 08:22:12;;;;;;;27.80;5.63;;;19.50;99.90;;;;;;5065122;28;20078;-56
2023/07/03 08:24:37;;;;;;;20.67;4.28;;;19.90;99.90;;;;;;5065754;28;20067;-56
2023/07/03 08:27:03;;;;;;;22.80;4.68;;;19.80;99.90;;;;;;5064845;28;20029;-56
2023/07/03 08:29:29;;;;;;;17.05;4.85;;;19.80;99.90;;;;;;5066088;28;20024;-56
2023/07/03 08:31:54;;;;;;;17.27;4.40;;;19.90;99.90;;;;;;5065971;28;20151;-56
2023/07/03 08:34:20;;;;;;;18.08;4.90;;;19.90;99.90;;;;;;5064980;28;20404;-56
2023/07/03 08:36:45;;;;;;;23.42;5.30;;;19.90;99.90;;;;;;5064762;28;20033;-56
2023/07/03 08:39:11;;;;;;;15.98;4.57;;;19.70;99.90;;;;;;5064862;28;20131;-56
2023/07/03 08:41:44;;;;;;;18.15;4.60;;;19.60;99.90;;;;;;5065895;28;20048;-56
2023/07/03 08:44:10;;;;;;;;;;;19.70;99.90;;;;;;5065599;28;20402;-56
2023/07/03 08:46:36;;;;;;;17.42;4.45;;;19.80;99.90;;;;;;5065275;28;20037;-56
2023/07/03 08:49:04;;;;;;;20.15;4.88;;;20.00;99.90;;;;;;5064090;28;20174;-56
2023/07/03 08:51:32;;;;;;;16.02;4.22;;;19.90;99.90;;;;;;5065356;28;20039;-56
2023/07/03 08:54:06;;;;;;;17.88;3.85;;;20.00;99.90;;;;;;5065573;28;20048;-56
2023/07/03 08:56:33;;;;;;;15.95;4.68;;;20.20;99.90;;;;;;5065209;28;20032;-55
2023/07/03 08:59:02;;;;;;;18.88;4.57;;;20.10;99.90;;;;;;5064996;28;20075;-56
2023/07/03 09:02:10;;;;;;;14.52;4.43;;;20.00;99.90;;;;;;5065134;28;20497;-56
2023/07/03 09:04:57;;;;;;;15.77;4.50;;;20.10;99.90;;;;;;5064835;28;20036;-56
2023/07/03 09:07:38;;;;;;;14.18;3.80;;;20.20;99.90;;;;;;5064403;28;20036;-56
2023/07/03 09:10:28;;;;;;;15.88;4.65;;;20.10;99.90;;;;;;5064135;28;20391;-56
2023/07/03 09:13:10;;;;;;;16.25;4.22;;;20.00;99.90;;;;;;5065783;28;20543;-56
2023/07/03 09:15:46;;;;;;;20.08;3.85;;;20.00;99.90;;;;;;5064782;28;20094;-55
2023/07/03 09:18:15;;;;;;;18.40;3.97;;;20.10;99.90;;;;;;5064777;28;20082;-56
2023/07/03 09:20:43;;;;;;;16.33;3.75;;;20.10;99.90;;;;;;5061799;28;20401;-56
2023/07/03 09:23:12;;;;;;;13.45;3.75;;;20.20;99.90;;;;;;5048520;28;20041;-55
2023/07/03 09:25:38;;;;;;;14.50;4.07;;;20.20;99.90;;;;;;5048653;28;20087;-56
2023/07/03 09:28:05;;;;;;;15.48;3.85;;;20.20;99.90;;;;;;5048359;28;20041;-55
2023/07/03 09:30:31;;;;;;;12.73;4.00;;;20.20;99.90;;;;;;5051796;28;20028;-56
2023/07/03 09:32:57;;;;;;;15.40;4.35;;;20.30;99.90;;;;;;5067886;28;20531;-56
2023/07/03 09:35:22;;;;;;;13.27;4.00;;;20.40;99.90;;;;;;5068260;28;20032;-56
2023/07/03 09:37:51;;;;;;;12.75;3.65;;;20.30;99.90;;;;;;5068429;28;20614;-55
2023/07/03 09:40:37;;;;;;;19.55;3.70;;;20.20;99.90;;;;;;5068320;28;20036;-56
2023/07/03 09:43:10;;;;;;;16.60;3.60;;;20.30;99.90;;;;;;5067447;28;20676;-56
2023/07/03 09:45:36;;;;;;;13.07;3.40;;;20.40;99.90;;;;;;5069382;28;20416;-56
2023/07/03 09:48:10;;;;;;;9.63;3.28;;;20.50;99.90;;;;;;5068230;28;20054;-56
2023/07/03 09:50:38;;;;;;;13.90;4.15;;;20.60;99.90;;;;;;5068515;28;20047;-56
2023/07/03 09:53:05;;;;;;;13.07;3.50;;;20.60;99.90;;;;;;5067756;28;20055;-56
2023/07/03 09:55:31;;;;;;;13.80;3.92;;;20.60;99.90;;;;;;5051500;28;20078;-56
2023/07/03 09:57:57;;;;;;;11.85;3.28;;;20.40;99.90;;;;;;5068018;28;20373;-56
2023/07/03 10:00:25;;;;;;;15.25;3.92;;;20.40;99.90;;;;;;5068121;28;20031;-56
2023/07/03 10:02:54;;;;;;;11.57;3.38;;;20.50;99.90;;;;;;5068649;28;20044;-56
2023/07/03 10:05:32;;;;;;;8.88;3.50;;;20.40;99.90;;;;;;5066523;28;20373;-56
2023/07/03 10:08:01;;;;;;;12.32;3.50;;;20.50;99.90;;;;;;5067684;28;20107;-56
2023/07/03 10:10:29;;;;;;;15.07;3.85;;;20.70;99.90;;;;;;5067710;28;20115;-56
2023/07/03 10:13:00;;;;;;;17.17;3.30;;;20.60;99.90;;;;;;5068584;28;20027;-56
2023/07/03 10:15:30;;;;;;;7.70;2.95;;;20.50;99.90;;;;;;5066134;28;20437;-56
2023/07/03 10:18:03;;;;;;;11.82;3.47;;;20.60;99.90;;;;;;5058608;28;20033;-55
2023/07/03 10:20:34;;;;;;;;;;;20.70;99.90;;;;;;5067623;28;20032;-56
2023/07/03 10:23:07;;;;;;;16.55;3.53;;;20.70;99.90;;;;;;5067698;28;20424;-56
2023/07/03 10:25:39;;;;;;;13.27;3.80;;;20.60;99.90;;;;;;5067637;28;20554;-56
2023/07/03 10:28:19;;;;;;;13.03;3.53;;;20.80;99.90;;;;;;5066597;28;20540;-56
2023/07/03 10:30:47;;;;;;;9.20;2.67;;;20.80;99.90;;;;;;5067469;28;20036;-56
2023/07/03 10:33:18;;;;;;;13.80;3.60;;;20.90;99.90;;;;;;5066694;28;20087;-56
2023/07/03 10:35:47;;;;;;;12.23;3.03;;;20.90;99.90;;;;;;5062278;28;20125;-56
2023/07/03 10:38:47;;;;;;;11.27;3.10;;;21.00;99.90;;;;;;5054947;28;20035;-56
2023/07/03 10:41:25;;;;;;;10.02;3.17;;;21.20;99.90;;;;;;5061817;28;20065;-56
2023/07/03 10:43:56;;;;;;;12.05;3.28;;;21.20;99.90;;;;;;5067731;28;20028;-55
2023/07/03 10:46:54;;;;;;;10.57;3.35;;;21.30;99.90;;;;;;5066502;28;20037;-55
2023/07/03 10:49:30;;;;;;;17.58;4.20;;;21.30;99.90;;;;;;5055421;28;20032;-56
2023/07/03 10:52:15;;;;;;;12.32;3.95;;;21.40;99.90;;;;;;5067493;28;20180;-55
2023/07/03 10:54:51;;;;;;;14.65;3.92;;;21.40;99.90;;;;;;5066344;28;20539;-56
2023/07/03 10:57:28;;;;;;;12.98;4.03;;;21.30;99.90;;;;;;5066388;28;20135;-55
2023/07/03 10:59:58;;;;;;;14.02;3.95;;;21.50;99.90;;;;;;5060947;28;20393;-56
2023/07/03 11:02:38;;;;;;;12.18;3.75;;;21.50;99.90;;;;;;5065089;28;20033;-55
2023/07/03 11:05:03;;;;;;;11.65;3.60;;;21.50;99.90;;;;;;5066291;28;20052;-55
2023/07/03 11:07:38;;;;;;;13.85;3.92;;;21.40;99.90;;;;;;5066696;28;20020;-56
2023/07/03 11:10:07;;;;;;;13.38;4.43;;;21.40;99.90;;;;;;5066114;28;20025;-56
2023/07/03 11:12:38;;;;;;;16.08;4.75;;;21.40;99.90;;;;;;5046929;28;20420;-56
2023/07/03 11:15:17;;;;;;;14.25;4.07;;;21.60;99.90;;;;;;5048197;28;20028;-56
2023/07/03 11:17:57;;;;;;;11.85;3.85;;;21.50;99.90;;;;;;5055977;28;20115;-56
2023/07/03 11:20:57;;;;;;;14.88;4.43;;;21.60;99.90;;;;;;5057020;28;20055;-56
2023/07/03 11:23:30;;;;;;;12.63;4.28;;;21.80;99.90;;;;;;5045951;28;20030;-56
2023/07/03 11:26:21;;;;;;;13.45;4.40;;;21.80;99.90;;;;;;5046455;28;20033;-56
2023/07/03 11:28:53;;;;;;;14.02;4.45;;;21.60;99.90;;;;;;5046394;28;20033;-55
2023/07/03 11:31:19;;;;;;;13.18;4.97;;;21.40;99.90;;;;;;5055547;28;20060;-56
2023/07/03 11:33:46;;;;;;;11.80;4.30;;;21.10;99.90;;;;;;5066009;28;20585;-55
2023/07/03 11:36:41;;;;;;;12.05;4.60;;;20.90;99.90;;;;;;5065883;28;20166;-56
2023/07/03 11:39:21;;;;;;;15.48;4.97;;;20.60;99.90;;;;;;5062843;28;20032;-56
2023/07/03 11:42:09;;;;;;;15.60;4.65;;;20.40;99.90;;;;;;5053686;28;20033;-56
2023/07/03 11:44:47;;;;;;;12.02;3.88;;;20.30;99.90;;;;;;5063166;28;20064;-56
2023/07/03 11:47:37;;;;;;;16.63;4.75;;;20.30;99.90;;;;;;5059824;28;20112;-56
2023/07/03 11:50:05;;;;;;;14.07;4.55;;;20.30;99.90;;;;;;5053061;28;20044;-56
2023/07/03 11:52:33;;;;;;;12.60;4.50;;;20.40;99.90;;;;;;5066196;28;20492;-56
2023/07/03 11:55:00;;;;;;;13.57;4.55;;;20.40;99.90;;;;;;5065880;28;20035;-56
2023/07/03 11:57:38;;;;;;;13.65;4.72;;;20.30;99.90;;;;;;5065589;28;20543;-56
2023/07/03 12:00:27;;;;;;;13.75;4.65;;;20.20;99.90;;;;;;5064647;28;20029;-56
2023/07/03 12:02:57;;;;;;;12.40;3.97;;;20.30;99.90;;;;;;5066299;28;20492;-56
2023/07/03 12:05:47;;;;;;;14.45;4.60;;;20.40;99.90;;;;;;5065491;28;20040;-55
2023/07/03 12:08:19;;;;;;;12.55;4.18;;;20.40;99.90;;;;;;5065214;28;20055;-56
2023/07/03 12:10:52;;;;;;;13.93;4.43;;;20.40;99.90;;;;;;5065298;28;20554;-56
2023/07/03 12:13:26;;;;;;;;;;;20.50;99.90;;;;;;5066203;28;20037;-56
2023/07/03 12:15:59;;;;;;;13.98;4.65;;;20.70;99.90;;;;;;5066484;28;20390;-56
2023/07/03 12:18:26;;;;;;;16.48;4.70;;;20.90;99.90;;;;;;5065383;28;20032;-56
2023/07/03 12:21:03;;;;;;;17.10;4.45;;;21.00;99.90;;;;;;5065710;28;20029;-56
2023/07/03 12:23:37;;;;;;;10.68;4.13;;;21.10;99.90;;;;;;5080108;28;20032;-56
2023/07/03 12:26:06;;;;;;;12.45;4.35;;;21.20;99.90;;;;;;5065068;28;20484;-56
2023/07/03 12:28:32;;;;;;;12.98;4.15;;;21.00;99.90;;;;;;5065708;28;20025;-56
2023/07/03 12:31:09;;;;;;;13.30;4.45;;;21.00;99.90;;;;;;5065721;28;20028;-56
2023/07/03 12:33:35;;;;;;;14.85;4.55;;;21.40;99.90;;;;;;5064588;28;20057;-56
2023/07/03 12:36:00;;;;;;;15.35;3.85;;;21.40;99.90;;;;;;5065555;28;20055;-56
2023/07/03 12:38:26;;;;;;;11.13;3.63;;;21.40;99.90;;;;;;5064922;28;20028;-56
2023/07/03 12:40:51;;;;;;;13.02;3.75;;;21.50;99.90;;;;;;5065768;28;20231;-56
2023/07/03 12:43:18;;;;;;;12.85;3.90;;;21.50;99.90;;;;;;5064592;28;20514;-56
2023/07/03 12:45:51;;;;;;;15.85;4.30;;;21.50;99.90;;;;;;5066168;28;20420;-56
2023/07/03 12:48:19;;;;;;;12.35;4.22;;;21.60;99.90;;;;;;5050966;28;20034;-56